Time,TemperatureF,DewpointF,PressureIn,WindDirection,WindDirectionDegrees,WindSpeedMPH,WindSpeedGustMPH,Humidity,HourlyPrecipIn,Conditions,Clouds,dailyrainin,SoftwareType,DateUTC
2013-08-15 00:02:00,75.7,70.2,29.18,NE,51,3.1,6.3,83,0.00,,,0.00,LWC V2.10 B1813,2013-08-15 05:02:00,
2013-08-15 00:07:00,75.4,70.2,29.18,East,87,2.7,3.6,84,0.00,,,0.00,LWC V2.10 B1813,2013-08-15 05:07:00,
2013-08-15 00:12:00,75.2,70.4,29.18,East,95,2.7,5.8,85,0.00,,,0.00,LWC V2.10 B1813,2013-08-15 05:12:00,
2013-08-15 00:17:00,75.0,70.5,29.18,NE,52,0.0,3.6,86,0.00,,,0.00,LWC V2.10 B1813,2013-08-15 05:17:00,
2013-08-15 00:22:00,74.8,70.4,29.18,NE,52,3.6,4.0,86,0.00,,,0.00,LWC V2.10 B1813,2013-08-15 05:22:00,
2013-08-15 00:27:00,74.8,70.7,29.18,ENE,70,2.2,2.7,87,0.00,,,0.00,LWC V2.10 B1813,2013-08-15 05:27:00,
2013-08-15 00:32:00,74.7,70.5,29.18,NE,54,0.0,2.2,87,0.00,,,0.00,LWC V2.10 B1813,2013-08-15 05:32:00,
2013-08-15 00:37:00,74.7,70.5,29.18,ENE,61,0.0,2.2,87,0.00,,,0.00,LWC V2.10 B1813,2013-08-15 05:37:00,
2013-08-15 00:42:00,74.7,70.5,29.18,NNE,13,2.2,3.1,87,0.00,,,0.00,LWC V2.10 B1813,2013-08-15 05:42:00,
2013-08-15 00:47:00,74.7,70.9,29.18,NE,49,2.7,2.7,88,0.00,,,0.00,LWC V2.10 B1813,2013-08-15 05:47:00,
2013-08-15 00:52:00,74.7,70.9,29.15,NNE,27,0.0,0.0,88,0.00,,,0.00,LWC V2.10 B1813,2013-08-15 05:52:00,
2013-08-15 00:57:00,74.7,70.9,29.15,NE,35,0.0,0.0,88,0.00,,,0.00,LWC V2.10 B1813,2013-08-15 05:57:00,
2013-08-15 01:02:00,74.7,70.9,29.15,East,81,0.0,0.0,88,0.00,,,0.00,LWC V2.10 B1813,2013-08-15 06:02:00,
2013-08-15 01:07:00,74.7,70.9,29.15,East,92,0.0,2.7,88,0.00,,,0.00,LWC V2.10 B1813,2013-08-15 06:07:00,
2013-08-15 01:12:00,74.7,70.9,29.15,ENE,75,0.0,0.0,88,0.00,,,0.00,LWC V2.10 B1813,2013-08-15 06:12:00,
2013-08-15 01:17:00,74.7,70.9,29.15,East,91,0.0,0.0,88,0.00,,,0.00,LWC V2.10 B1813,2013-08-15 06:17:00,
2013-08-15 01:22:00,74.5,70.7,29.15,ENE,63,0.0,0.0,88,0.00,,,0.00,LWC V2.10 B1813,2013-08-15 06:22:00,
2013-08-15 01:27:00,74.5,70.7,29.15,NE,46,0.0,2.2,88,0.00,,,0.00,LWC V2.10 B1813,2013-08-15 06:27:00,
2013-08-15 01:32:00,74.3,70.5,29.15,East,83,0.0,3.6,88,0.00,,,0.00,LWC V2.10 B1813,2013-08-15 06:32:00,
2013-08-15 01:37:00,74.3,70.5,29.12,NE,44,0.0,0.0,88,0.00,,,0.00,LWC V2.10 B1813,2013-08-15 06:37:00,
2013-08-15 01:42:00,74.3,70.5,29.12,ENE,78,0.0,0.0,88,0.00,,,0.00,LWC V2.10 B1813,2013-08-15 06:42:00,
2013-08-15 01:47:00,74.3,70.8,29.15,East,87,0.0,0.0,89,0.00,,,0.00,LWC V2.10 B1813,2013-08-15 06:47:00,
2013-08-15 01:52:00,74.5,71.0,29.15,East,87,0.0,0.0,89,0.00,,,0.00,LWC V2.10 B1813,2013-08-15 06:52:00,
2013-08-15 01:57:00,74.7,71.2,29.15,East,87,0.0,0.0,89,0.00,,,0.00,LWC V2.10 B1813,2013-08-15 06:57:00,
2013-08-15 02:02:00,74.7,71.2,29.15,East,87,0.0,0.0,89,0.00,,,0.00,LWC V2.10 B1813,2013-08-15 07:02:00,
2013-08-15 02:07:00,74.7,71.2,29.15,East,87,0.0,0.0,89,0.00,,,0.00,LWC V2.10 B1813,2013-08-15 07:07:00,
2013-08-15 02:12:00,74.7,71.2,29.15,East,87,0.0,0.0,89,0.00,,,0.00,LWC V2.10 B1813,2013-08-15 07:12:00,
2013-08-15 02:17:00,74.5,71.0,29.12,East,87,0.0,0.0,89,0.00,,,0.00,LWC V2.10 B1813,2013-08-15 07:17:00,
2013-08-15 02:22:00,74.5,71.0,29.12,East,87,0.0,0.0,89,0.00,,,0.00,LWC V2.10 B1813,2013-08-15 07:22:00,
2013-08-15 02:27:00,74.3,70.8,29.12,ESE,107,0.0,2.2,89,0.00,,,0.00,LWC V2.10 B1813,2013-08-15 07:27:00,
2013-08-15 02:32:00,74.3,70.8,29.12,ESE,109,2.2,2.7,89,0.00,,,0.00,LWC V2.10 B1813,2013-08-15 07:32:00,
2013-08-15 02:37:00,74.3,70.8,29.12,East,85,0.0,0.0,89,0.00,,,0.00,LWC V2.10 B1813,2013-08-15 07:37:00,
2013-08-15 02:42:00,74.1,70.7,29.12,East,87,0.0,2.2,89,0.00,,,0.00,LWC V2.10 B1813,2013-08-15 07:42:00,
2013-08-15 02:47:00,74.1,70.7,29.12,ENE,75,0.0,0.0,89,0.00,,,0.00,LWC V2.10 B1813,2013-08-15 07:47:00,
2013-08-15 02:52:00,73.9,70.5,29.12,East,99,0.0,0.0,89,0.00,,,0.00,LWC V2.10 B1813,2013-08-15 07:52:00,
2013-08-15 02:57:00,73.9,70.5,29.12,East,95,0.0,0.0,89,0.00,,,0.00,LWC V2.10 B1813,2013-08-15 07:57:00,
2013-08-15 03:02:00,73.9,70.5,29.12,East,91,0.0,0.0,89,0.00,,,0.00,LWC V2.10 B1813,2013-08-15 08:02:00,
2013-08-15 03:07:00,74.1,71.0,29.12,East,96,0.0,0.0,90,0.00,,,0.00,LWC V2.10 B1813,2013-08-15 08:07:00,
2013-08-15 03:12:00,74.1,71.0,29.12,East,96,0.0,0.0,90,0.00,,,0.00,LWC V2.10 B1813,2013-08-15 08:12:00,
2013-08-15 03:17:00,73.9,70.8,29.12,East,96,0.0,0.0,90,0.00,,,0.00,LWC V2.10 B1813,2013-08-15 08:17:00,
2013-08-15 03:22:00,73.9,70.8,29.12,East,96,0.0,0.0,90,0.00,,,0.00,LWC V2.10 B1813,2013-08-15 08:22:00,
2013-08-15 03:27:00,73.8,70.6,29.12,East,95,0.0,0.0,90,0.00,,,0.00,LWC V2.10 B1813,2013-08-15 08:27:00,
2013-08-15 03:32:00,73.8,70.6,29.12,East,95,0.0,0.0,90,0.00,,,0.00,LWC V2.10 B1813,2013-08-15 08:32:00,
2013-08-15 03:37:00,73.8,70.6,29.12,East,94,0.0,0.0,90,0.00,,,0.00,LWC V2.10 B1813,2013-08-15 08:37:00,
2013-08-15 03:42:00,73.8,70.6,29.12,East,95,2.7,2.7,90,0.00,,,0.00,LWC V2.10 B1813,2013-08-15 08:42:00,
2013-08-15 03:47:00,73.6,70.5,29.12,ESE,112,2.7,4.0,90,0.00,,,0.00,LWC V2.10 B1813,2013-08-15 08:47:00,
2013-08-15 03:52:00,73.6,70.5,29.12,East,88,0.0,3.6,90,0.00,,,0.00,LWC V2.10 B1813,2013-08-15 08:52:00,
2013-08-15 03:57:00,73.8,70.6,29.12,East,93,0.0,0.0,90,0.00,,,0.00,LWC V2.10 B1813,2013-08-15 08:57:00,
2013-08-15 04:02:00,73.8,70.6,29.12,East,92,0.0,0.0,90,0.00,,,0.00,LWC V2.10 B1813,2013-08-15 09:02:00,
2013-08-15 04:07:00,73.8,70.6,29.12,East,92,0.0,0.0,90,0.00,,,0.00,LWC V2.10 B1813,2013-08-15 09:07:00,
2013-08-15 04:12:00,73.8,70.6,29.12,East,92,0.0,0.0,90,0.00,,,0.00,LWC V2.10 B1813,2013-08-15 09:12:00,
2013-08-15 04:17:00,73.8,70.6,29.12,East,92,0.0,0.0,90,0.00,,,0.00,LWC V2.10 B1813,2013-08-15 09:17:00,
2013-08-15 04:22:00,73.9,70.8,29.12,East,92,0.0,0.0,90,0.00,,,0.00,LWC V2.10 B1813,2013-08-15 09:22:00,
2013-08-15 04:27:00,73.8,70.6,29.12,East,92,0.0,0.0,90,0.00,,,0.00,LWC V2.10 B1813,2013-08-15 09:27:00,
2013-08-15 04:32:00,73.8,70.6,29.12,East,92,0.0,0.0,90,0.00,,,0.00,LWC V2.10 B1813,2013-08-15 09:32:00,
2013-08-15 04:37:00,73.6,70.5,29.12,East,92,0.0,0.0,90,0.00,,,0.00,LWC V2.10 B1813,2013-08-15 09:37:00,
2013-08-15 04:42:00,73.8,70.6,29.12,East,92,0.0,0.0,90,0.00,,,0.00,LWC V2.10 B1813,2013-08-15 09:42:00,
2013-08-15 04:47:00,73.8,70.6,29.12,East,92,0.0,0.0,90,0.00,,,0.00,LWC V2.10 B1813,2013-08-15 09:47:00,
2013-08-15 04:48:00,73.8,70.6,29.12,East,92,0.0,0.0,90,0.00,,,0.00,LWC V2.10 B1813,2013-08-15 09:48:00,
2013-08-15 04:53:00,73.9,70.8,29.12,East,92,0.0,0.0,90,0.00,,,0.00,LWC V2.10 B1813,2013-08-15 09:53:00,
2013-08-15 04:58:00,73.9,70.8,29.12,East,92,0.0,0.0,90,0.00,,,0.00,LWC V2.10 B1813,2013-08-15 09:58:00,
2013-08-15 05:03:00,74.3,71.2,29.12,East,92,0.0,0.0,90,0.00,,,0.00,LWC V2.10 B1813,2013-08-15 10:03:00,
2013-08-15 05:08:00,74.3,71.2,29.12,East,92,0.0,0.0,90,0.00,,,0.00,LWC V2.10 B1813,2013-08-15 10:08:00,
2013-08-15 05:13:00,74.3,71.2,29.12,East,92,0.0,0.0,90,0.00,,,0.00,LWC V2.10 B1813,2013-08-15 10:13:00,
2013-08-15 05:18:00,74.3,71.2,29.12,East,92,0.0,0.0,90,0.00,,,0.00,LWC V2.10 B1813,2013-08-15 10:18:00,
2013-08-15 05:23:00,74.3,71.2,29.12,East,93,0.0,0.0,90,0.00,,,0.00,LWC V2.10 B1813,2013-08-15 10:23:00,
2013-08-15 05:28:00,74.1,71.0,29.12,East,92,0.0,0.0,90,0.00,,,0.00,LWC V2.10 B1813,2013-08-15 10:28:00,
2013-08-15 05:33:00,74.1,71.0,29.12,SSE,147,0.0,2.2,90,0.00,,,0.00,LWC V2.10 B1813,2013-08-15 10:33:00,
2013-08-15 05:38:00,74.1,71.0,29.12,SSE,149,0.0,0.0,90,0.00,,,0.00,LWC V2.10 B1813,2013-08-15 10:38:00,
2013-08-15 05:43:00,74.1,71.0,29.12,SSE,149,0.0,0.0,90,0.00,,,0.00,LWC V2.10 B1813,2013-08-15 10:43:00,
2013-08-15 05:48:00,74.1,71.0,29.12,SSE,149,0.0,0.0,90,0.00,,,0.00,LWC V2.10 B1813,2013-08-15 10:48:00,
2013-08-15 05:53:00,74.3,71.2,29.12,SSE,149,0.0,0.0,90,0.00,,,0.00,LWC V2.10 B1813,2013-08-15 10:53:00,
2013-08-15 05:58:00,74.3,71.2,29.12,SSE,149,0.0,0.0,90,0.00,,,0.00,LWC V2.10 B1813,2013-08-15 10:58:00,
2013-08-15 06:03:00,74.1,71.0,29.12,SSE,149,0.0,0.0,90,0.00,,,0.00,LWC V2.10 B1813,2013-08-15 11:03:00,
2013-08-15 06:08:00,74.1,71.0,29.12,SSE,149,0.0,0.0,90,0.00,,,0.00,LWC V2.10 B1813,2013-08-15 11:08:00,
2013-08-15 06:13:00,74.1,71.0,29.12,NE,47,0.0,0.0,90,0.00,,,0.00,LWC V2.10 B1813,2013-08-15 11:13:00,
2013-08-15 06:18:00,74.1,71.0,29.15,NNE,18,0.0,0.0,90,0.00,,,0.00,LWC V2.10 B1813,2013-08-15 11:18:00,
2013-08-15 06:23:00,73.9,70.8,29.15,NNE,18,0.0,0.0,90,0.00,,,0.00,LWC V2.10 B1813,2013-08-15 11:23:00,
2013-08-15 06:28:00,73.9,70.8,29.15,NNW,343,3.1,3.1,90,0.00,,,0.00,LWC V2.10 B1813,2013-08-15 11:28:00,
2013-08-15 06:33:00,73.9,70.8,29.15,North,357,2.7,2.7,90,0.00,,,0.00,LWC V2.10 B1813,2013-08-15 11:33:00,
2013-08-15 06:38:00,73.8,70.6,29.15,North,357,0.0,0.0,90,0.00,,,0.00,LWC V2.10 B1813,2013-08-15 11:38:00,
2013-08-15 06:43:00,73.8,70.6,29.15,North,357,0.0,0.0,90,0.00,,,0.00,LWC V2.10 B1813,2013-08-15 11:43:00,
2013-08-15 06:48:00,73.6,70.5,29.15,North,357,0.0,3.1,90,0.00,,,0.00,LWC V2.10 B1813,2013-08-15 11:48:00,
2013-08-15 06:53:00,73.6,70.5,29.15,North,357,0.0,0.0,90,0.00,,,0.00,LWC V2.10 B1813,2013-08-15 11:53:00,
2013-08-15 06:58:00,73.6,70.5,29.15,North,357,0.0,0.0,90,0.00,,,0.00,LWC V2.10 B1813,2013-08-15 11:58:00,
2013-08-15 07:03:00,73.6,70.5,29.15,North,357,0.0,0.0,90,0.00,,,0.00,LWC V2.10 B1813,2013-08-15 12:03:00,
2013-08-15 07:08:00,73.6,70.5,29.15,North,357,2.7,3.1,90,0.00,,,0.00,LWC V2.10 B1813,2013-08-15 12:08:00,
2013-08-15 07:13:00,73.6,70.5,29.15,North,357,0.0,0.0,90,0.00,,,0.00,LWC V2.10 B1813,2013-08-15 12:13:00,
2013-08-15 07:18:00,73.6,70.5,29.15,NNE,19,2.2,2.7,90,0.00,,,0.00,LWC V2.10 B1813,2013-08-15 12:18:00,
2013-08-15 07:23:00,73.6,70.5,29.15,NNE,19,0.0,0.0,90,0.00,,,0.00,LWC V2.10 B1813,2013-08-15 12:23:00,
2013-08-15 07:28:00,73.6,70.5,29.15,NNE,19,0.0,0.0,90,0.00,,,0.00,LWC V2.10 B1813,2013-08-15 12:28:00,
2013-08-15 07:33:00,73.6,70.5,29.18,NNE,23,2.7,4.0,90,0.00,,,0.00,LWC V2.10 B1813,2013-08-15 12:33:00,
2013-08-15 07:38:00,73.8,71.0,29.18,NNE,23,0.0,0.0,91,0.00,,,0.00,LWC V2.10 B1813,2013-08-15 12:38:00,
2013-08-15 07:43:00,73.8,71.0,29.18,NNE,23,0.0,0.0,91,0.00,,,0.00,LWC V2.10 B1813,2013-08-15 12:43:00,
2013-08-15 07:48:00,73.9,71.1,29.18,NNE,16,3.6,3.6,91,0.00,,,0.00,LWC V2.10 B1813,2013-08-15 12:48:00,
2013-08-15 07:53:00,73.9,71.1,29.18,North,9,3.1,4.0,91,0.00,,,0.00,LWC V2.10 B1813,2013-08-15 12:53:00,
2013-08-15 07:58:00,74.1,71.3,29.18,North,4,0.0,2.7,91,0.00,,,0.00,LWC V2.10 B1813,2013-08-15 12:58:00,
2013-08-15 08:03:00,74.1,71.3,29.18,NNE,27,0.0,5.8,91,0.00,,,0.00,LWC V2.10 B1813,2013-08-15 13:03:00,
2013-08-15 08:08:00,74.3,71.5,29.18,East,99,0.0,2.7,91,0.00,,,0.00,LWC V2.10 B1813,2013-08-15 13:08:00,
2013-08-15 08:13:00,74.3,71.5,29.18,NE,42,2.7,3.1,91,0.00,,,0.00,LWC V2.10 B1813,2013-08-15 13:13:00,
2013-08-15 08:19:00,74.5,71.7,29.18,NE,46,0.0,2.7,91,0.00,,,0.00,LWC V2.10 B1813,2013-08-15 13:19:00,
2013-08-15 08:24:00,74.5,71.7,29.18,East,99,3.1,3.1,91,0.00,,,0.00,LWC V2.10 B1813,2013-08-15 13:24:00,
2013-08-15 08:29:00,74.5,71.7,29.18,NNE,17,0.0,4.0,91,0.00,,,0.00,LWC V2.10 B1813,2013-08-15 13:29:00,
2013-08-15 08:34:00,74.5,71.7,29.18,NNE,18,0.0,0.0,91,0.00,,,0.00,LWC V2.10 B1813,2013-08-15 13:34:00,
2013-08-15 08:39:00,74.7,71.8,29.18,NE,36,3.6,3.6,91,0.00,,,0.00,LWC V2.10 B1813,2013-08-15 13:39:00,
2013-08-15 08:44:00,74.8,72.0,29.18,NNE,31,3.6,3.6,91,0.00,,,0.00,LWC V2.10 B1813,2013-08-15 13:44:00,
2013-08-15 08:49:00,74.8,72.0,29.18,NE,52,2.7,4.0,91,0.00,,,0.00,LWC V2.10 B1813,2013-08-15 13:49:00,
2013-08-15 08:54:00,74.8,72.0,29.18,NNE,27,3.6,4.9,91,0.00,,,0.00,LWC V2.10 B1813,2013-08-15 13:54:00,
2013-08-15 08:59:00,74.8,72.0,29.18,East,86,0.0,2.7,91,0.00,,,0.00,LWC V2.10 B1813,2013-08-15 13:59:00,
2013-08-15 09:04:00,75.0,72.2,29.18,NE,51,2.2,3.1,91,0.00,,,0.00,LWC V2.10 B1813,2013-08-15 14:04:00,
2013-08-15 09:09:00,75.2,72.1,29.18,NE,39,0.0,2.7,90,0.00,,,0.00,LWC V2.10 B1813,2013-08-15 14:09:00,
2013-08-15 09:14:00,75.4,72.2,29.18,NE,40,0.0,4.0,90,0.00,,,0.00,LWC V2.10 B1813,2013-08-15 14:14:00,
2013-08-15 09:19:00,76.1,72.9,29.18,NNE,14,2.7,5.8,90,0.00,,,0.00,LWC V2.10 B1813,2013-08-15 14:19:00,
2013-08-15 09:24:00,76.6,73.5,29.18,NE,44,3.6,3.6,90,0.00,,,0.00,LWC V2.10 B1813,2013-08-15 14:24:00,
2013-08-15 09:29:00,76.6,73.1,29.18,ENE,78,3.6,5.4,89,0.00,,,0.00,LWC V2.10 B1813,2013-08-15 14:29:00,
2013-08-15 09:34:00,76.6,73.1,29.18,NE,40,3.6,4.9,89,0.00,,,0.00,LWC V2.10 B1813,2013-08-15 14:34:00,
2013-08-15 09:39:00,77.0,73.5,29.18,NE,42,3.1,6.3,89,0.00,,,0.00,LWC V2.10 B1813,2013-08-15 14:39:00,
2013-08-15 09:44:00,77.4,73.5,29.18,NNE,25,2.7,7.2,88,0.00,,,0.00,LWC V2.10 B1813,2013-08-15 14:44:00,
2013-08-15 09:49:00,77.9,74.0,29.18,East,82,0.0,4.0,88,0.00,,,0.00,LWC V2.10 B1813,2013-08-15 14:49:00,
2013-08-15 09:54:00,78.4,74.2,29.18,East,81,5.8,5.8,87,0.00,,,0.00,LWC V2.10 B1813,2013-08-15 14:54:00,
2013-08-15 09:59:00,78.8,74.2,29.18,NE,41,2.2,3.1,86,0.00,,,0.00,LWC V2.10 B1813,2013-08-15 14:59:00,
2013-08-15 10:04:00,79.3,74.8,29.18,ESE,115,3.1,4.0,86,0.00,,,0.00,LWC V2.10 B1813,2013-08-15 15:04:00,
2013-08-15 10:09:00,80.1,74.8,29.18,ENE,75,5.4,5.4,84,0.00,,,0.00,LWC V2.10 B1813,2013-08-15 15:09:00,
2013-08-15 10:14:00,80.1,74.4,29.18,ENE,63,3.1,5.8,83,0.00,,,0.00,LWC V2.10 B1813,2013-08-15 15:14:00,
2013-08-15 10:20:00,79.5,73.5,29.18,North,11,5.4,5.8,82,0.00,,,0.00,LWC V2.10 B1813,2013-08-15 15:20:00,
2013-08-15 10:25:00,79.9,73.5,29.18,NNE,23,4.9,4.9,81,0.00,,,0.00,LWC V2.10 B1813,2013-08-15 15:25:00,
2013-08-15 10:30:00,80.1,73.3,29.18,NNE,17,3.1,3.6,80,0.00,,,0.00,LWC V2.10 B1813,2013-08-15 15:30:00,
2013-08-15 10:35:00,80.4,73.7,29.18,ENE,64,2.2,3.1,80,0.00,,,0.00,LWC V2.10 B1813,2013-08-15 15:35:00,
2013-08-15 10:40:00,80.4,73.3,29.18,NNE,26,3.1,5.8,79,0.00,,,0.00,LWC V2.10 B1813,2013-08-15 15:40:00,
2013-08-15 10:45:00,80.4,73.3,29.18,North,357,2.7,6.3,79,0.00,,,0.00,LWC V2.10 B1813,2013-08-15 15:45:00,
2013-08-15 10:50:00,80.8,72.9,29.20,ENE,65,4.0,4.0,77,0.00,,,0.00,LWC V2.10 B1813,2013-08-15 15:50:00,
2013-08-15 10:55:00,80.6,72.7,29.20,East,84,3.1,3.6,77,0.00,,,0.00,LWC V2.10 B1813,2013-08-15 15:55:00,
2013-08-15 11:00:00,80.6,72.7,29.20,NNE,24,4.0,4.0,77,0.00,,,0.00,LWC V2.10 B1813,2013-08-15 16:00:00,
2013-08-15 11:05:00,81.1,73.2,29.20,North,11,3.1,3.6,77,0.00,,,0.00,LWC V2.10 B1813,2013-08-15 16:05:00,
2013-08-15 11:10:00,81.7,73.4,29.20,ENE,60,3.6,5.8,76,0.00,,,0.00,LWC V2.10 B1813,2013-08-15 16:10:00,
2013-08-15 11:15:00,81.7,73.4,29.20,NNE,19,3.6,3.6,76,0.00,,,0.00,LWC V2.10 B1813,2013-08-15 16:15:00,
2013-08-15 11:20:00,81.7,73.0,29.20,NNE,22,0.0,4.9,75,0.00,,,0.00,LWC V2.10 B1813,2013-08-15 16:20:00,
2013-08-15 11:25:00,81.9,73.1,29.20,NNE,24,3.1,4.0,75,0.00,,,0.00,LWC V2.10 B1813,2013-08-15 16:25:00,
2013-08-15 11:30:00,82.0,72.9,29.20,SSW,195,3.1,4.0,74,0.00,,,0.00,LWC V2.10 B1813,2013-08-15 16:30:00,
2013-08-15 11:35:00,82.2,72.7,29.20,NNE,12,3.1,3.6,73,0.00,,,0.00,LWC V2.10 B1813,2013-08-15 16:35:00,
2013-08-15 11:40:00,82.8,72.8,29.20,East,92,2.7,3.1,72,0.00,,,0.00,LWC V2.10 B1813,2013-08-15 16:40:00,
2013-08-15 11:45:00,82.4,72.0,29.20,North,357,4.9,5.4,71,0.00,,,0.00,LWC V2.10 B1813,2013-08-15 16:45:00,
2013-08-15 11:50:00,82.8,71.9,29.20,NNE,14,2.7,3.6,70,0.00,,,0.00,LWC V2.10 B1813,2013-08-15 16:50:00,
2013-08-15 11:55:00,82.6,71.4,29.20,NNE,13,3.1,5.4,69,0.00,,,0.00,LWC V2.10 B1813,2013-08-15 16:55:00,
2013-08-15 12:00:00,82.4,70.8,29.20,NNE,25,0.0,3.1,68,0.00,,,0.00,LWC V2.10 B1813,2013-08-15 17:00:00,
2013-08-15 12:05:00,82.9,71.3,29.18,SSW,192,2.7,4.0,68,0.00,,,0.00,LWC V2.10 B1813,2013-08-15 17:05:00,
2013-08-15 12:10:00,83.8,71.2,29.18,SE,134,3.6,4.0,66,0.00,,,0.00,LWC V2.10 B1813,2013-08-15 17:10:00,
2013-08-15 12:15:00,85.5,72.3,29.18,NE,43,0.0,2.7,65,0.00,,,0.00,LWC V2.10 B1813,2013-08-15 17:15:00,
2013-08-15 12:20:00,85.1,71.1,29.18,South,180,0.0,3.1,63,0.00,,,0.00,LWC V2.10 B1813,2013-08-15 17:20:00,
2013-08-15 12:25:00,85.8,71.7,29.18,North,0,2.7,3.6,63,0.00,,,0.00,LWC V2.10 B1813,2013-08-15 17:25:00,
2013-08-15 12:30:00,86.0,71.4,29.18,NE,41,2.2,3.6,62,0.00,,,0.00,LWC V2.10 B1813,2013-08-15 17:30:00,
2013-08-15 12:35:00,85.3,71.2,29.18,ESE,103,3.6,4.9,63,0.00,,,0.00,LWC V2.10 B1813,2013-08-15 17:35:00,
2013-08-15 12:40:00,85.1,71.1,29.18,ESE,108,2.7,3.1,63,0.00,,,0.00,LWC V2.10 B1813,2013-08-15 17:40:00,
2013-08-15 12:45:00,86.0,71.4,29.18,WSW,246,0.0,3.6,62,0.00,,,0.00,LWC V2.10 B1813,2013-08-15 17:45:00,
2013-08-15 12:50:00,87.1,71.5,29.18,SE,137,3.6,3.6,60,0.00,,,0.00,LWC V2.10 B1813,2013-08-15 17:50:00,
2013-08-15 12:55:00,86.0,70.5,29.18,East,98,3.1,3.1,60,0.00,,,0.00,LWC V2.10 B1813,2013-08-15 17:55:00,
2013-08-15 13:00:00,86.2,71.1,29.18,East,84,3.6,4.5,61,0.00,,,0.00,LWC V2.10 B1813,2013-08-15 18:00:00,
2013-08-15 13:05:00,86.5,71.0,29.18,NW,310,2.7,4.0,60,0.00,,,0.00,LWC V2.10 B1813,2013-08-15 18:05:00,
2013-08-15 13:10:00,87.4,71.3,29.18,WSW,258,2.7,3.1,59,0.00,,,0.00,LWC V2.10 B1813,2013-08-15 18:10:00,
2013-08-15 13:15:00,87.8,71.1,29.18,NNW,342,3.1,4.9,58,0.00,,,0.00,LWC V2.10 B1813,2013-08-15 18:15:00,
2013-08-15 13:20:00,88.7,70.9,29.18,South,171,0.0,6.3,56,0.00,,,0.00,LWC V2.10 B1813,2013-08-15 18:20:00,
2013-08-15 13:25:00,88.3,71.1,29.18,NNE,25,0.0,3.6,57,0.00,,,0.00,LWC V2.10 B1813,2013-08-15 18:25:00,
2013-08-15 13:30:00,87.8,70.6,29.18,NNW,334,4.0,4.9,57,0.00,,,0.00,LWC V2.10 B1813,2013-08-15 18:30:00,
2013-08-15 13:35:00,87.8,70.1,29.18,NNW,332,2.2,4.0,56,0.00,,,0.00,LWC V2.10 B1813,2013-08-15 18:35:00,
2013-08-15 13:40:00,88.3,70.6,29.18,North,10,2.2,3.6,56,0.00,,,0.00,LWC V2.10 B1813,2013-08-15 18:40:00,
2013-08-15 13:45:00,88.5,70.3,29.18,South,172,2.7,4.9,55,0.00,,,0.00,LWC V2.10 B1813,2013-08-15 18:45:00,
2013-08-15 13:50:00,88.2,70.4,29.15,NE,55,2.7,3.1,56,0.00,,,0.00,LWC V2.10 B1813,2013-08-15 18:50:00,
2013-08-15 13:55:00,88.3,70.1,29.15,ENE,74,2.2,5.4,55,0.00,,,0.00,LWC V2.10 B1813,2013-08-15 18:55:00,
2013-08-15 14:00:00,88.9,69.5,29.15,SSW,199,5.4,5.4,53,0.00,,,0.00,LWC V2.10 B1813,2013-08-15 19:00:00,
2013-08-15 14:05:00,88.5,69.2,29.15,South,183,4.0,4.0,53,0.00,,,0.00,LWC V2.10 B1813,2013-08-15 19:05:00,
2013-08-15 14:10:00,89.2,69.8,29.15,SE,135,3.1,6.3,53,0.00,,,0.00,LWC V2.10 B1813,2013-08-15 19:10:00,
2013-08-15 14:15:00,89.6,69.0,29.15,SE,144,4.0,7.6,51,0.00,,,0.00,LWC V2.10 B1813,2013-08-15 19:15:00,
2013-08-15 14:20:00,89.2,68.7,29.15,SSW,205,8.1,8.1,51,0.00,,,0.00,LWC V2.10 B1813,2013-08-15 19:20:00,
2013-08-15 14:25:00,88.5,68.6,29.15,South,170,2.7,4.0,52,0.00,,,0.00,LWC V2.10 B1813,2013-08-15 19:25:00,
2013-08-15 14:30:00,89.1,69.1,29.15,East,95,2.7,5.4,52,0.00,,,0.00,LWC V2.10 B1813,2013-08-15 19:30:00,
2013-08-15 14:35:00,90.3,69.7,29.15,NW,318,0.0,4.0,51,0.00,,,0.00,LWC V2.10 B1813,2013-08-15 19:35:00,
2013-08-15 14:40:00,91.2,69.9,29.15,NE,54,3.6,3.6,50,0.00,,,0.00,LWC V2.10 B1813,2013-08-15 19:40:00,
2013-08-15 14:46:00,90.7,68.8,29.15,ESE,117,2.2,3.6,49,0.00,,,0.00,LWC V2.10 B1813,2013-08-15 19:46:00,
2013-08-15 14:51:00,91.2,68.1,29.12,SSW,196,3.6,5.4,47,0.00,,,0.00,LWC V2.10 B1813,2013-08-15 19:51:00,
2013-08-15 14:56:00,90.7,68.2,29.12,SW,214,2.7,4.5,48,0.00,,,0.00,LWC V2.10 B1813,2013-08-15 19:56:00,
2013-08-15 15:01:00,91.4,68.9,29.12,NNE,24,3.1,7.6,48,0.00,,,0.00,LWC V2.10 B1813,2013-08-15 20:01:00,
2013-08-15 15:06:00,92.3,69.1,29.12,East,98,3.1,4.0,47,0.00,,,0.00,LWC V2.10 B1813,2013-08-15 20:06:00,
2013-08-15 15:11:00,90.7,68.2,29.12,SE,141,3.6,10.5,48,0.00,,,0.00,LWC V2.10 B1813,2013-08-15 20:11:00,
2013-08-15 15:16:00,90.5,68.7,29.12,East,81,2.2,3.1,49,0.00,,,0.00,LWC V2.10 B1813,2013-08-15 20:16:00,
2013-08-15 15:21:00,90.5,68.7,29.12,East,82,3.6,4.0,49,0.00,,,0.00,LWC V2.10 B1813,2013-08-15 20:21:00,
2013-08-15 15:26:00,91.4,68.9,29.12,ENE,67,4.0,6.3,48,0.00,,,0.00,LWC V2.10 B1813,2013-08-15 20:26:00,
2013-08-15 15:31:00,92.1,68.9,29.12,East,95,4.0,5.4,47,0.00,,,0.00,LWC V2.10 B1813,2013-08-15 20:31:00,
2013-08-15 15:36:00,91.9,68.8,29.12,SE,126,2.7,4.0,47,0.00,,,0.00,LWC V2.10 B1813,2013-08-15 20:36:00,
2013-08-15 15:41:00,92.1,68.9,29.12,NE,38,2.7,4.0,47,0.00,,,0.00,LWC V2.10 B1813,2013-08-15 20:41:00,
2013-08-15 15:46:00,92.7,68.8,29.12,ENE,62,3.1,3.6,46,0.00,,,0.00,LWC V2.10 B1813,2013-08-15 20:46:00,
2013-08-15 15:51:00,93.0,69.1,29.12,WNW,295,0.0,2.2,46,0.00,,,0.00,LWC V2.10 B1813,2013-08-15 20:51:00,
2013-08-15 15:56:00,93.6,69.0,29.12,SE,130,0.0,4.0,45,0.00,,,0.00,LWC V2.10 B1813,2013-08-15 20:56:00,
2013-08-15 16:01:00,93.2,68.6,29.12,NE,41,3.1,8.1,45,0.00,,,0.00,LWC V2.10 B1813,2013-08-15 21:01:00,
2013-08-15 16:06:00,93.6,68.3,29.09,NNE,30,3.1,4.0,44,0.00,,,0.00,LWC V2.10 B1813,2013-08-15 21:06:00,
2013-08-15 16:11:00,92.8,68.3,29.09,NE,35,2.2,5.4,45,0.00,,,0.00,LWC V2.10 B1813,2013-08-15 21:11:00,
2013-08-15 16:16:00,92.1,67.7,29.09,East,100,2.7,4.0,45,0.00,,,0.00,LWC V2.10 B1813,2013-08-15 21:16:00,
2013-08-15 16:21:00,91.2,67.5,29.09,ENE,59,4.0,6.3,46,0.00,,,0.00,LWC V2.10 B1813,2013-08-15 21:21:00,
2013-08-15 16:26:00,90.7,67.6,29.09,ESE,108,2.7,3.6,47,0.00,,,0.00,LWC V2.10 B1813,2013-08-15 21:26:00,
2013-08-15 16:31:00,90.9,67.8,29.09,ENE,68,3.1,3.6,47,0.00,,,0.00,LWC V2.10 B1813,2013-08-15 21:31:00,
2013-08-15 16:36:00,90.9,67.8,29.09,NNE,25,3.6,3.6,47,0.00,,,0.00,LWC V2.10 B1813,2013-08-15 21:36:00,
2013-08-15 16:41:00,90.5,67.5,29.09,ENE,75,0.0,3.6,47,0.00,,,0.00,LWC V2.10 B1813,2013-08-15 21:41:00,
2013-08-15 16:46:00,90.1,67.1,29.09,ENE,64,2.7,5.4,47,0.00,,,0.00,LWC V2.10 B1813,2013-08-15 21:46:00,
2013-08-15 16:51:00,89.8,67.4,29.09,ENE,58,3.1,4.0,48,0.00,,,0.00,LWC V2.10 B1813,2013-08-15 21:51:00,
2013-08-15 16:56:00,89.6,67.3,29.09,East,82,4.9,6.3,48,0.00,,,0.00,LWC V2.10 B1813,2013-08-15 21:56:00,
2013-08-15 17:01:00,89.2,67.5,29.09,NE,45,2.7,5.4,49,0.00,,,0.00,LWC V2.10 B1813,2013-08-15 22:01:00,
2013-08-15 17:06:00,89.4,68.3,29.09,NE,34,4.0,5.4,50,0.00,,,0.00,LWC V2.10 B1813,2013-08-15 22:06:00,
2013-08-15 17:11:00,89.1,68.0,29.09,NE,49,2.7,8.1,50,0.00,,,0.00,LWC V2.10 B1813,2013-08-15 22:11:00,
2013-08-15 17:16:00,88.9,67.8,29.09,East,93,5.4,5.4,50,0.00,,,0.00,LWC V2.10 B1813,2013-08-15 22:16:00,
2013-08-15 17:21:00,88.5,68.0,29.09,NE,43,3.6,3.6,51,0.00,,,0.00,LWC V2.10 B1813,2013-08-15 22:21:00,
2013-08-15 17:26:00,88.2,67.7,29.09,NE,47,2.7,4.9,51,0.00,,,0.00,LWC V2.10 B1813,2013-08-15 22:26:00,
2013-08-15 17:31:00,88.0,67.5,29.09,NNE,31,3.1,4.9,51,0.00,,,0.00,LWC V2.10 B1813,2013-08-15 22:31:00,
2013-08-15 17:36:00,87.8,67.4,29.09,NE,50,3.1,4.0,51,0.00,,,0.00,LWC V2.10 B1813,2013-08-15 22:36:00,
2013-08-15 17:41:00,87.6,67.8,29.09,NNE,21,3.1,6.7,52,0.00,,,0.00,LWC V2.10 B1813,2013-08-15 22:41:00,
2013-08-15 17:46:00,87.4,67.6,29.09,NE,48,4.0,4.0,52,0.00,,,0.00,LWC V2.10 B1813,2013-08-15 22:46:00,
2013-08-15 17:51:00,87.4,68.2,29.09,North,5,0.0,3.1,53,0.00,,,0.00,LWC V2.10 B1813,2013-08-15 22:51:00,
2013-08-15 17:56:00,87.4,68.2,29.09,NNE,28,2.7,4.9,53,0.00,,,0.00,LWC V2.10 B1813,2013-08-15 22:56:00,
2013-08-15 18:01:00,87.3,68.0,29.09,NE,42,2.2,3.1,53,0.00,,,0.00,LWC V2.10 B1813,2013-08-15 23:01:00,
2013-08-15 18:06:00,87.1,67.8,29.12,NE,42,4.0,5.4,53,0.00,,,0.00,LWC V2.10 B1813,2013-08-15 23:06:00,
2013-08-15 18:11:00,86.9,68.2,29.12,NNE,25,3.1,3.1,54,0.00,,,0.00,LWC V2.10 B1813,2013-08-15 23:11:00,
2013-08-15 18:16:00,86.5,68.9,29.12,NE,50,3.6,5.8,56,0.00,,,0.00,LWC V2.10 B1813,2013-08-15 23:16:00,
2013-08-15 18:21:00,85.6,69.6,29.12,NNE,32,0.0,2.7,59,0.00,,,0.00,LWC V2.10 B1813,2013-08-15 23:21:00,
2013-08-15 18:26:00,84.7,70.2,29.12,NE,39,2.2,3.1,62,0.00,,,0.00,LWC V2.10 B1813,2013-08-15 23:26:00,
2013-08-15 18:31:00,83.1,70.1,29.12,NNE,28,0.0,2.2,65,0.00,,,0.00,LWC V2.10 B1813,2013-08-15 23:31:00,
2013-08-15 18:36:00,81.7,70.1,29.12,NE,52,2.2,2.7,68,0.00,,,0.00,LWC V2.10 B1813,2013-08-15 23:36:00,
2013-08-15 18:41:00,80.8,69.6,29.12,ENE,59,2.2,2.2,69,0.00,,,0.00,LWC V2.10 B1813,2013-08-15 23:41:00,
2013-08-15 18:46:00,80.6,69.9,29.12,NE,48,2.2,3.1,70,0.00,,,0.00,LWC V2.10 B1813,2013-08-15 23:46:00,
2013-08-15 18:51:00,80.2,70.4,29.09,ENE,63,2.7,3.6,72,0.00,,,0.04,LWC V2.10 B1813,2013-08-15 23:51:00,
2013-08-15 18:56:00,79.7,70.7,29.09,East,88,2.2,2.2,74,0.00,,,0.04,LWC V2.10 B1813,2013-08-15 23:56:00,
2013-08-15 19:01:00,79.7,70.7,29.09,NNE,23,0.0,4.0,74,0.00,,,0.04,LWC V2.10 B1813,2013-08-16 00:01:00,
2013-08-15 19:06:00,80.1,71.4,29.12,North,10,3.6,5.4,75,0.00,,,0.04,LWC V2.10 B1813,2013-08-16 00:06:00,
2013-08-15 19:12:00,80.4,71.7,29.12,NW,313,3.6,3.6,75,0.00,,,0.04,LWC V2.10 B1813,2013-08-16 00:12:00,
2013-08-15 19:17:00,80.4,71.7,29.12,NNE,25,0.0,3.6,75,0.00,,,0.04,LWC V2.10 B1813,2013-08-16 00:17:00,
2013-08-15 19:22:00,80.4,71.7,29.12,NE,53,0.0,3.1,75,0.00,,,0.04,LWC V2.10 B1813,2013-08-16 00:22:00,
2013-08-15 19:27:00,80.6,71.1,29.12,North,8,0.0,0.0,73,0.00,,,0.04,LWC V2.10 B1813,2013-08-16 00:27:00,
2013-08-15 19:32:00,80.8,70.9,29.12,NE,41,0.0,0.0,72,0.00,,,0.04,LWC V2.10 B1813,2013-08-16 00:32:00,
2013-08-15 19:37:00,81.3,71.0,29.12,NNE,24,2.7,2.7,71,0.00,,,0.04,LWC V2.10 B1813,2013-08-16 00:37:00,
2013-08-15 19:42:00,81.7,71.3,29.12,WNW,297,3.6,3.6,71,0.00,,,0.04,LWC V2.10 B1813,2013-08-16 00:42:00,
2013-08-15 19:47:00,80.4,70.9,29.12,WSW,239,8.3,12.3,73,0.00,,,0.04,LWC V2.10 B1813,2013-08-16 00:47:00,
2013-08-15 19:52:00,77.2,69.0,29.15,WNW,297,20.1,20.1,76,0.00,,,0.04,LWC V2.10 B1813,2013-08-16 00:52:00,
2013-08-15 19:57:00,75.2,68.2,29.15,WNW,294,5.8,12.8,79,0.00,,,0.04,LWC V2.10 B1813,2013-08-16 00:57:00,
2013-08-15 20:02:00,74.1,68.3,29.18,NW,313,10.1,15.0,82,0.00,,,0.04,LWC V2.10 B1813,2013-08-16 01:02:00,
2013-08-15 20:07:00,73.8,68.3,29.18,West,280,5.8,10.5,83,0.00,,,0.04,LWC V2.10 B1813,2013-08-16 01:07:00,
2013-08-15 20:12:00,73.0,68.3,29.18,NNE,20,0.0,10.5,85,0.04,,,0.08,LWC V2.10 B1813,2013-08-16 01:12:00,
2013-08-15 20:17:00,73.0,68.3,29.18,NW,309,5.4,5.4,85,0.04,,,0.08,LWC V2.10 B1813,2013-08-16 01:17:00,
2013-08-15 20:22:00,72.9,68.4,29.18,WNW,287,3.6,9.2,86,0.04,,,0.12,LWC V2.10 B1813,2013-08-16 01:22:00,
2013-08-15 20:27:00,72.9,68.4,29.18,WNW,282,0.0,5.4,86,0.31,,,0.16,LWC V2.10 B1813,2013-08-16 01:27:00,
2013-08-15 20:32:00,72.7,68.6,29.18,NW,307,0.0,4.9,87,0.31,,,0.16,LWC V2.10 B1813,2013-08-16 01:32:00,
2013-08-15 20:37:00,72.7,68.6,29.18,WNW,302,2.7,3.1,87,0.35,,,0.24,LWC V2.10 B1813,2013-08-16 01:37:00,
2013-08-15 20:42:00,72.5,68.7,29.18,WSW,256,6.3,6.3,88,0.35,,,0.24,LWC V2.10 B1813,2013-08-16 01:42:00,
2013-08-15 20:47:00,72.5,68.7,29.18,SSW,209,3.1,3.1,88,0.35,,,0.24,LWC V2.10 B1813,2013-08-16 01:47:00,
2013-08-15 20:52:00,72.1,68.7,29.18,SSE,148,3.6,3.6,89,0.35,,,0.24,LWC V2.10 B1813,2013-08-16 01:52:00,
2013-08-15 20:57:00,72.0,68.5,29.18,SE,142,2.2,3.1,89,0.35,,,0.24,LWC V2.10 B1813,2013-08-16 01:57:00,
2013-08-15 21:02:00,72.0,68.5,29.15,SW,225,2.7,3.6,89,0.35,,,0.24,LWC V2.10 B1813,2013-08-16 02:02:00,
2013-08-15 21:07:00,72.0,68.5,29.15,ESE,106,0.0,0.0,89,0.35,,,0.24,LWC V2.10 B1813,2013-08-16 02:07:00,
2013-08-15 21:12:00,71.8,68.4,29.15,ESE,112,2.7,4.0,89,0.35,,,0.24,LWC V2.10 B1813,2013-08-16 02:12:00,
2013-08-15 21:17:00,72.0,68.5,29.12,ESE,117,3.1,3.1,89,0.35,,,0.24,LWC V2.10 B1813,2013-08-16 02:17:00,
2013-08-15 21:22:00,72.3,68.9,29.12,SE,130,0.0,0.0,89,0.35,,,0.24,LWC V2.10 B1813,2013-08-16 02:22:00,
2013-08-15 21:27:00,72.7,69.2,29.12,SE,131,0.0,0.0,89,0.35,,,0.24,LWC V2.10 B1813,2013-08-16 02:27:00,
2013-08-15 21:32:00,72.9,69.4,29.12,SE,131,0.0,0.0,89,0.35,,,0.24,LWC V2.10 B1813,2013-08-16 02:32:00,
2013-08-15 21:37:00,72.9,69.4,29.12,SE,130,0.0,0.0,89,0.35,,,0.24,LWC V2.10 B1813,2013-08-16 02:37:00,
2013-08-15 21:42:00,72.9,69.4,29.12,ESE,111,2.2,3.6,89,0.35,,,0.24,LWC V2.10 B1813,2013-08-16 02:42:00,
2013-08-15 21:47:00,72.9,69.7,29.12,East,80,4.0,4.9,90,0.35,,,0.24,LWC V2.10 B1813,2013-08-16 02:47:00,
2013-08-15 21:52:00,72.9,69.7,29.12,ENE,68,2.2,4.9,90,0.35,,,0.24,LWC V2.10 B1813,2013-08-16 02:52:00,
2013-08-15 21:57:00,73.0,69.9,29.12,East,91,2.7,2.7,90,0.35,,,0.24,LWC V2.10 B1813,2013-08-16 02:57:00,
2013-08-15 22:02:00,73.2,70.1,29.15,East,92,3.1,3.6,90,0.35,,,0.24,LWC V2.10 B1813,2013-08-16 03:02:00,
2013-08-15 22:07:00,73.2,70.1,29.15,East,91,0.0,0.0,90,0.35,,,0.24,LWC V2.10 B1813,2013-08-16 03:07:00,
2013-08-15 22:12:00,73.2,70.4,29.15,East,87,3.6,3.6,91,0.35,,,0.24,LWC V2.10 B1813,2013-08-16 03:12:00,
2013-08-15 22:17:00,73.2,70.4,29.15,ESE,109,5.8,5.8,91,0.35,,,0.24,LWC V2.10 B1813,2013-08-16 03:17:00,
2013-08-15 22:22:00,73.4,70.3,29.15,East,84,3.6,6.3,90,0.35,,,0.24,LWC V2.10 B1813,2013-08-16 03:22:00,
2013-08-15 22:27:00,73.6,70.8,29.15,ENE,67,0.0,4.0,91,0.35,,,0.24,LWC V2.10 B1813,2013-08-16 03:27:00,
2013-08-15 22:32:00,73.8,71.0,29.15,North,3,2.2,2.7,91,0.35,,,0.24,LWC V2.10 B1813,2013-08-16 03:32:00,
2013-08-15 22:37:00,73.6,70.8,29.15,North,8,2.7,3.1,91,0.35,,,0.24,LWC V2.10 B1813,2013-08-16 03:37:00,
2013-08-15 22:42:00,73.4,70.6,29.15,NE,36,0.0,0.0,91,0.35,,,0.24,LWC V2.10 B1813,2013-08-16 03:42:00,
2013-08-15 22:47:00,73.4,70.6,29.18,NE,35,0.0,0.0,91,0.00,,,0.24,LWC V2.10 B1813,2013-08-16 03:47:00,
2013-08-15 22:52:00,73.4,70.6,29.18,NE,48,0.0,0.0,91,0.00,,,0.24,LWC V2.10 B1813,2013-08-16 03:52:00,
2013-08-15 22:57:00,73.4,70.6,29.18,NE,56,0.0,0.0,91,0.00,,,0.24,LWC V2.10 B1813,2013-08-16 03:57:00,
2013-08-15 23:01:00,73.4,70.6,29.18,East,101,4.0,4.0,91,0.00,,,0.24,LWC V2.10 B1813,2013-08-16 04:01:00,
2013-08-15 23:06:00,73.6,70.8,29.18,East,89,4.0,4.9,91,0.00,,,0.24,LWC V2.10 B1813,2013-08-16 04:06:00,
2013-08-15 23:11:00,73.6,70.8,29.18,ESE,111,0.0,4.0,91,0.00,,,0.24,LWC V2.10 B1813,2013-08-16 04:11:00,
2013-08-15 23:16:00,73.6,71.1,29.18,East,100,0.0,0.0,92,0.00,,,0.24,LWC V2.10 B1813,2013-08-16 04:16:00,
2013-08-15 23:21:00,73.6,71.1,29.18,East,101,0.0,2.2,92,0.00,,,0.24,LWC V2.10 B1813,2013-08-16 04:21:00,
2013-08-15 23:26:00,73.6,71.1,29.18,NNE,28,0.0,2.2,92,0.00,,,0.24,LWC V2.10 B1813,2013-08-16 04:26:00,
2013-08-15 23:31:00,73.6,71.1,29.18,NE,49,0.0,2.2,92,0.00,,,0.24,LWC V2.10 B1813,2013-08-16 04:31:00,
2013-08-15 23:36:00,73.6,71.1,29.18,ENE,71,0.0,0.0,92,0.00,,,0.24,LWC V2.10 B1813,2013-08-16 04:36:00,
2013-08-15 23:41:00,73.6,71.1,29.18,ENE,71,0.0,0.0,92,0.00,,,0.24,LWC V2.10 B1813,2013-08-16 04:41:00,
2013-08-15 23:46:00,73.6,71.1,29.18,NE,48,0.0,2.2,92,0.00,,,0.24,LWC V2.10 B1813,2013-08-16 04:46:00,
2013-08-15 23:51:00,73.6,71.1,29.18,NE,47,0.0,0.0,92,0.00,,,0.24,LWC V2.10 B1813,2013-08-16 04:51:00,
2013-08-15 23:56:00,73.8,71.3,29.18,NE,47,0.0,0.0,92,0.00,,,0.24,LWC V2.10 B1813,2013-08-16 04:56:00,